sensor_id;sensor_type;location;lat;lon;timestamp;P1;durP1;ratioP1;P2;durP2;ratioP2
75426;SDS011;64007;50.632;13.700;2023-03-23T00:02:29;5.78;;;2.33;;
75426;SDS011;64007;50.632;13.700;2023-03-23T00:05:07;6.20;;;2.13;;
75426;SDS011;64007;50.632;13.700;2023-03-23T00:09:59;5.65;;;1.88;;
75426;SDS011;64007;50.632;13.700;2023-03-23T00:12:29;4.13;;;1.85;;
75426;SDS011;64007;50.632;13.700;2023-03-23T00:17:28;4.57;;;1.67;;
75426;SDS011;64007;50.632;13.700;2023-03-23T00:19:55;5.28;;;1.70;;
75426;SDS011;64007;50.632;13.700;2023-03-23T00:22:21;4.75;;;1.50;;
75426;SDS011;64007;50.632;13.700;2023-03-23T00:24:50;3.75;;;1.30;;
75426;SDS011;64007;50.632;13.700;2023-03-23T00:27:17;3.33;;;1.50;;
75426;SDS011;64007;50.632;13.700;2023-03-23T00:29:43;2.35;;;1.20;;
75426;SDS011;64007;50.632;13.700;2023-03-23T00:32:10;7.18;;;1.30;;
75426;SDS011;64007;50.632;13.700;2023-03-23T00:34:40;3.55;;;1.38;;
75426;SDS011;64007;50.632;13.700;2023-03-23T00:37:08;5.28;;;1.33;;
75426;SDS011;64007;50.632;13.700;2023-03-23T00:39:38;3.83;;;1.13;;
75426;SDS011;64007;50.632;13.700;2023-03-23T00:42:11;5.60;;;1.30;;
75426;SDS011;64007;50.632;13.700;2023-03-23T00:44:40;8.00;;;1.70;;
75426;SDS011;64007;50.632;13.700;2023-03-23T00:47:06;4.38;;;1.60;;
75426;SDS011;64007;50.632;13.700;2023-03-23T00:49:34;3.75;;;1.20;;
75426;SDS011;64007;50.632;13.700;2023-03-23T00:52:00;9.85;;;1.40;;
75426;SDS011;64007;50.632;13.700;2023-03-23T00:54:27;2.55;;;1.20;;
75426;SDS011;64007;50.632;13.700;2023-03-23T00:56:53;4.72;;;1.50;;
75426;SDS011;64007;50.632;13.700;2023-03-23T00:59:20;4.35;;;1.35;;
75426;SDS011;64007;50.632;13.700;2023-03-23T01:01:46;4.30;;;1.52;;
75426;SDS011;64007;50.632;13.700;2023-03-23T01:04:12;3.00;;;1.25;;
75426;SDS011;64007;50.632;13.700;2023-03-23T01:06:41;7.95;;;1.60;;
75426;SDS011;64007;50.632;13.700;2023-03-23T01:09:09;10.13;;;4.13;;
75426;SDS011;64007;50.632;13.700;2023-03-23T01:11:40;11.30;;;3.85;;
75426;SDS011;64007;50.632;13.700;2023-03-23T01:14:07;8.68;;;3.58;;
75426;SDS011;64007;50.632;13.700;2023-03-23T01:16:33;11.20;;;2.85;;
75426;SDS011;64007;50.632;13.700;2023-03-23T01:18:59;8.88;;;2.97;;
75426;SDS011;64007;50.632;13.700;2023-03-23T01:21:25;6.18;;;2.60;;
75426;SDS011;64007;50.632;13.700;2023-03-23T01:23:50;8.63;;;2.95;;
75426;SDS011;64007;50.632;13.700;2023-03-23T01:26:17;11.63;;;2.60;;
75426;SDS011;64007;50.632;13.700;2023-03-23T01:28:45;6.93;;;2.65;;
75426;SDS011;64007;50.632;13.700;2023-03-23T01:31:13;7.72;;;2.10;;
75426;SDS011;64007;50.632;13.700;2023-03-23T01:33:41;3.78;;;1.77;;
75426;SDS011;64007;50.632;13.700;2023-03-23T01:36:08;5.28;;;2.13;;
75426;SDS011;64007;50.632;13.700;2023-03-23T01:38:37;6.53;;;2.20;;
75426;SDS011;64007;50.632;13.700;2023-03-23T01:41:03;7.10;;;2.20;;
75426;SDS011;64007;50.632;13.700;2023-03-23T01:43:30;4.75;;;2.40;;
75426;SDS011;64007;50.632;13.700;2023-03-23T01:45:56;9.52;;;1.90;;
75426;SDS011;64007;50.632;13.700;2023-03-23T01:48:23;5.25;;;2.17;;
75426;SDS011;64007;50.632;13.700;2023-03-23T01:51:01;11.13;;;2.47;;
75426;SDS011;64007;50.632;13.700;2023-03-23T01:53:31;9.35;;;2.42;;
75426;SDS011;64007;50.632;13.700;2023-03-23T01:56:03;6.22;;;2.13;;
75426;SDS011;64007;50.632;13.700;2023-03-23T01:58:31;8.25;;;2.42;;
75426;SDS011;64007;50.632;13.700;2023-03-23T02:00:59;16.90;;;3.70;;
75426;SDS011;64007;50.632;13.700;2023-03-23T02:03:29;16.30;;;4.00;;
75426;SDS011;64007;50.632;13.700;2023-03-23T02:05:57;5.80;;;1.88;;
75426;SDS011;64007;50.632;13.700;2023-03-23T02:08:29;10.88;;;2.10;;
75426;SDS011;64007;50.632;13.700;2023-03-23T02:10:57;6.18;;;1.83;;
75426;SDS011;64007;50.632;13.700;2023-03-23T02:13:24;14.00;;;2.13;;
75426;SDS011;64007;50.632;13.700;2023-03-23T02:27:03;4.68;;;1.75;;
75426;SDS011;64007;50.632;13.700;2023-03-23T02:40:06;6.32;;;1.75;;
75426;SDS011;64007;50.632;13.700;2023-03-23T02:42:38;7.55;;;1.92;;
75426;SDS011;64007;50.632;13.700;2023-03-23T02:45:07;5.90;;;2.33;;
75426;SDS011;64007;50.632;13.700;2023-03-23T02:47:35;4.15;;;1.65;;
75426;SDS011;64007;50.632;13.700;2023-03-23T02:50:05;5.35;;;1.70;;
75426;SDS011;64007;50.632;13.700;2023-03-23T02:52:39;5.03;;;1.60;;
75426;SDS011;64007;50.632;13.700;2023-03-23T02:55:07;5.13;;;1.70;;
75426;SDS011;64007;50.632;13.700;2023-03-23T02:57:37;4.35;;;1.80;;
75426;SDS011;64007;50.632;13.700;2023-03-23T03:00:05;10.82;;;1.98;;
75426;SDS011;64007;50.632;13.700;2023-03-23T03:02:36;7.63;;;1.90;;
75426;SDS011;64007;50.632;13.700;2023-03-23T03:07:36;5.22;;;1.80;;
75426;SDS011;64007;50.632;13.700;2023-03-23T03:10:27;15.65;;;2.03;;
75426;SDS011;64007;50.632;13.700;2023-03-23T03:13:21;7.20;;;1.75;;
75426;SDS011;64007;50.632;13.700;2023-03-23T03:16:12;9.35;;;1.80;;
75426;SDS011;64007;50.632;13.700;2023-03-23T03:18:57;6.47;;;2.10;;
75426;SDS011;64007;50.632;13.700;2023-03-23T03:21:26;6.28;;;1.80;;
75426;SDS011;64007;50.632;13.700;2023-03-23T03:23:55;9.40;;;2.00;;
75426;SDS011;64007;50.632;13.700;2023-03-23T03:26:26;6.00;;;1.63;;
75426;SDS011;64007;50.632;13.700;2023-03-23T03:28:54;4.60;;;1.67;;
75426;SDS011;64007;50.632;13.700;2023-03-23T03:31:28;7.13;;;1.60;;
75426;SDS011;64007;50.632;13.700;2023-03-23T03:33:57;2.53;;;1.50;;
75426;SDS011;64007;50.632;13.700;2023-03-23T03:36:30;8.60;;;1.60;;
75426;SDS011;64007;50.632;13.700;2023-03-23T03:39:03;4.13;;;1.42;;
75426;SDS011;64007;50.632;13.700;2023-03-23T03:41:33;3.63;;;1.50;;
75426;SDS011;64007;50.632;13.700;2023-03-23T03:43:59;7.00;;;1.52;;
75426;SDS011;64007;50.632;13.700;2023-03-23T03:46:26;4.93;;;1.40;;
75426;SDS011;64007;50.632;13.700;2023-03-23T03:48:55;7.22;;;1.42;;
75426;SDS011;64007;50.632;13.700;2023-03-23T03:51:25;5.90;;;1.65;;
75426;SDS011;64007;50.632;13.700;2023-03-23T03:53:52;4.78;;;1.63;;
75426;SDS011;64007;50.632;13.700;2023-03-23T03:56:18;4.15;;;1.40;;
75426;SDS011;64007;50.632;13.700;2023-03-23T03:58:45;5.35;;;1.42;;
75426;SDS011;64007;50.632;13.700;2023-03-23T04:01:14;7.85;;;1.58;;
75426;SDS011;64007;50.632;13.700;2023-03-23T04:03:41;6.18;;;1.50;;
75426;SDS011;64007;50.632;13.700;2023-03-23T04:06:08;3.95;;;1.50;;
75426;SDS011;64007;50.632;13.700;2023-03-23T04:08:35;3.92;;;1.67;;
75426;SDS011;64007;50.632;13.700;2023-03-23T04:11:03;4.05;;;1.42;;
75426;SDS011;64007;50.632;13.700;2023-03-23T04:13:29;4.35;;;1.30;;
75426;SDS011;64007;50.632;13.700;2023-03-23T04:15:56;3.03;;;1.20;;
75426;SDS011;64007;50.632;13.700;2023-03-23T04:18:21;6.07;;;1.38;;
75426;SDS011;64007;50.632;13.700;2023-03-23T04:20:49;4.95;;;1.30;;
75426;SDS011;64007;50.632;13.700;2023-03-23T04:23:15;10.50;;;1.88;;
75426;SDS011;64007;50.632;13.700;2023-03-23T04:25:46;3.42;;;1.63;;
75426;SDS011;64007;50.632;13.700;2023-03-23T04:28:13;3.97;;;1.55;;
75426;SDS011;64007;50.632;13.700;2023-03-23T04:30:42;5.32;;;1.40;;
75426;SDS011;64007;50.632;13.700;2023-03-23T04:33:08;8.23;;;1.70;;
75426;SDS011;64007;50.632;13.700;2023-03-23T04:35:40;5.60;;;1.52;;
75426;SDS011;64007;50.632;13.700;2023-03-23T04:38:07;5.93;;;1.73;;
75426;SDS011;64007;50.632;13.700;2023-03-23T04:40:38;9.75;;;1.35;;
75426;SDS011;64007;50.632;13.700;2023-03-23T04:43:05;6.50;;;1.55;;
75426;SDS011;64007;50.632;13.700;2023-03-23T04:45:32;4.82;;;1.50;;
75426;SDS011;64007;50.632;13.700;2023-03-23T04:47:59;3.60;;;1.40;;
75426;SDS011;64007;50.632;13.700;2023-03-23T04:50:29;3.65;;;1.48;;
75426;SDS011;64007;50.632;13.700;2023-03-23T04:52:58;7.78;;;1.80;;
75426;SDS011;64007;50.632;13.700;2023-03-23T04:55:33;3.58;;;1.45;;
75426;SDS011;64007;50.632;13.700;2023-03-23T04:58:03;10.68;;;1.83;;
75426;SDS011;64007;50.632;13.700;2023-03-23T05:00:31;4.15;;;1.48;;
75426;SDS011;64007;50.632;13.700;2023-03-23T05:02:58;4.00;;;1.90;;
75426;SDS011;64007;50.632;13.700;2023-03-23T05:05:24;5.10;;;1.83;;
75426;SDS011;64007;50.632;13.700;2023-03-23T05:07:50;6.35;;;1.50;;
75426;SDS011;64007;50.632;13.700;2023-03-23T05:10:16;5.25;;;1.70;;
75426;SDS011;64007;50.632;13.700;2023-03-23T05:12:42;5.38;;;1.45;;
75426;SDS011;64007;50.632;13.700;2023-03-23T05:15:09;5.55;;;1.90;;
75426;SDS011;64007;50.632;13.700;2023-03-23T05:17:36;9.77;;;1.80;;
75426;SDS011;64007;50.632;13.700;2023-03-23T05:20:03;5.05;;;1.60;;
75426;SDS011;64007;50.632;13.700;2023-03-23T05:22:33;11.02;;;1.92;;
75426;SDS011;64007;50.632;13.700;2023-03-23T05:24:59;6.07;;;1.95;;
75426;SDS011;64007;50.632;13.700;2023-03-23T05:27:27;6.80;;;1.60;;
75426;SDS011;64007;50.632;13.700;2023-03-23T05:29:56;6.32;;;2.00;;
75426;SDS011;64007;50.632;13.700;2023-03-23T05:32:24;3.67;;;1.70;;
75426;SDS011;64007;50.632;13.700;2023-03-23T05:34:55;5.15;;;1.75;;
75426;SDS011;64007;50.632;13.700;2023-03-23T05:37:21;3.08;;;1.75;;
75426;SDS011;64007;50.632;13.700;2023-03-23T05:39:47;5.55;;;1.83;;
75426;SDS011;64007;50.632;13.700;2023-03-23T05:42:13;18.48;;;1.83;;
75426;SDS011;64007;50.632;13.700;2023-03-23T05:44:39;9.85;;;1.65;;
75426;SDS011;64007;50.632;13.700;2023-03-23T05:47:05;14.82;;;1.83;;
75426;SDS011;64007;50.632;13.700;2023-03-23T05:49:31;5.25;;;1.80;;
75426;SDS011;64007;50.632;13.700;2023-03-23T05:51:56;8.55;;;1.70;;
75426;SDS011;64007;50.632;13.700;2023-03-23T05:54:22;8.25;;;2.00;;
75426;SDS011;64007;50.632;13.700;2023-03-23T05:56:48;9.43;;;1.63;;
75426;SDS011;64007;50.632;13.700;2023-03-23T05:59:14;3.22;;;1.73;;
75426;SDS011;64007;50.632;13.700;2023-03-23T06:01:40;6.57;;;1.88;;
75426;SDS011;64007;50.632;13.700;2023-03-23T06:04:06;5.07;;;1.65;;
75426;SDS011;64007;50.632;13.700;2023-03-23T06:06:31;6.20;;;1.75;;
75426;SDS011;64007;50.632;13.700;2023-03-23T06:08:57;6.65;;;1.42;;
75426;SDS011;64007;50.632;13.700;2023-03-23T06:11:24;6.25;;;2.20;;
75426;SDS011;64007;50.632;13.700;2023-03-23T06:13:51;6.50;;;1.70;;
75426;SDS011;64007;50.632;13.700;2023-03-23T06:16:17;14.63;;;2.17;;
75426;SDS011;64007;50.632;13.700;2023-03-23T06:18:44;4.40;;;1.65;;
75426;SDS011;64007;50.632;13.700;2023-03-23T06:21:10;4.80;;;1.98;;
75426;SDS011;64007;50.632;13.700;2023-03-23T06:23:36;8.95;;;1.92;;
75426;SDS011;64007;50.632;13.700;2023-03-23T06:26:06;14.20;;;2.17;;
75426;SDS011;64007;50.632;13.700;2023-03-23T06:28:34;5.88;;;1.67;;
75426;SDS011;64007;50.632;13.700;2023-03-23T06:31:03;6.47;;;2.20;;
75426;SDS011;64007;50.632;13.700;2023-03-23T06:33:32;4.57;;;2.50;;
75426;SDS011;64007;50.632;13.700;2023-03-23T06:35:59;7.20;;;2.22;;
75426;SDS011;64007;50.632;13.700;2023-03-23T06:38:25;4.50;;;2.03;;
75426;SDS011;64007;50.632;13.700;2023-03-23T06:40:54;9.38;;;2.30;;
75426;SDS011;64007;50.632;13.700;2023-03-23T06:43:22;9.20;;;3.17;;
75426;SDS011;64007;50.632;13.700;2023-03-23T06:45:48;7.75;;;3.47;;
75426;SDS011;64007;50.632;13.700;2023-03-23T06:48:14;7.35;;;2.85;;
75426;SDS011;64007;50.632;13.700;2023-03-23T06:50:43;8.85;;;3.28;;
75426;SDS011;64007;50.632;13.700;2023-03-23T06:53:10;17.23;;;3.10;;
75426;SDS011;64007;50.632;13.700;2023-03-23T06:55:36;18.15;;;4.32;;
75426;SDS011;64007;50.632;13.700;2023-03-23T06:58:04;8.40;;;3.10;;
75426;SDS011;64007;50.632;13.700;2023-03-23T07:00:31;13.10;;;4.13;;
75426;SDS011;64007;50.632;13.700;2023-03-23T07:02:58;13.07;;;3.97;;
75426;SDS011;64007;50.632;13.700;2023-03-23T07:05:24;13.30;;;4.78;;
75426;SDS011;64007;50.632;13.700;2023-03-23T07:07:50;18.73;;;6.72;;
75426;SDS011;64007;50.632;13.700;2023-03-23T07:10:16;18.40;;;6.45;;
75426;SDS011;64007;50.632;13.700;2023-03-23T07:12:42;17.98;;;6.00;;
75426;SDS011;64007;50.632;13.700;2023-03-23T07:15:08;19.27;;;5.40;;
75426;SDS011;64007;50.632;13.700;2023-03-23T07:17:36;11.75;;;4.70;;
75426;SDS011;64007;50.632;13.700;2023-03-23T07:20:03;16.80;;;4.22;;
75426;SDS011;64007;50.632;13.700;2023-03-23T07:22:30;11.00;;;3.38;;
75426;SDS011;64007;50.632;13.700;2023-03-23T07:24:56;12.07;;;2.95;;
75426;SDS011;64007;50.632;13.700;2023-03-23T07:27:23;9.23;;;2.50;;
75426;SDS011;64007;50.632;13.700;2023-03-23T07:29:49;5.75;;;2.30;;
75426;SDS011;64007;50.632;13.700;2023-03-23T07:32:15;5.32;;;2.60;;
75426;SDS011;64007;50.632;13.700;2023-03-23T07:34:40;8.27;;;2.28;;
75426;SDS011;64007;50.632;13.700;2023-03-23T07:37:06;4.63;;;2.40;;
75426;SDS011;64007;50.632;13.700;2023-03-23T07:39:32;8.60;;;2.50;;
75426;SDS011;64007;50.632;13.700;2023-03-23T07:41:59;7.22;;;2.70;;
75426;SDS011;64007;50.632;13.700;2023-03-23T07:44:25;8.95;;;2.40;;
75426;SDS011;64007;50.632;13.700;2023-03-23T07:46:54;11.00;;;2.10;;
75426;SDS011;64007;50.632;13.700;2023-03-23T07:49:20;11.48;;;2.50;;
75426;SDS011;64007;50.632;13.700;2023-03-23T07:51:46;8.18;;;2.53;;
75426;SDS011;64007;50.632;13.700;2023-03-23T07:54:12;6.28;;;2.42;;
75426;SDS011;64007;50.632;13.700;2023-03-23T07:56:39;5.72;;;2.42;;
75426;SDS011;64007;50.632;13.700;2023-03-23T07:59:05;10.52;;;3.05;;
75426;SDS011;64007;50.632;13.700;2023-03-23T08:01:33;9.85;;;2.63;;
75426;SDS011;64007;50.632;13.700;2023-03-23T08:03:58;4.97;;;2.70;;
75426;SDS011;64007;50.632;13.700;2023-03-23T08:06:25;11.55;;;2.30;;
75426;SDS011;64007;50.632;13.700;2023-03-23T08:08:52;8.18;;;2.70;;
75426;SDS011;64007;50.632;13.700;2023-03-23T08:11:18;9.68;;;2.13;;
75426;SDS011;64007;50.632;13.700;2023-03-23T08:13:45;11.07;;;2.30;;
75426;SDS011;64007;50.632;13.700;2023-03-23T08:16:11;11.40;;;2.17;;
75426;SDS011;64007;50.632;13.700;2023-03-23T08:18:38;8.77;;;2.70;;
75426;SDS011;64007;50.632;13.700;2023-03-23T08:21:05;3.80;;;2.28;;
75426;SDS011;64007;50.632;13.700;2023-03-23T08:23:35;5.93;;;2.33;;
75426;SDS011;64007;50.632;13.700;2023-03-23T08:26:02;8.32;;;2.53;;
75426;SDS011;64007;50.632;13.700;2023-03-23T08:28:31;6.63;;;2.22;;
75426;SDS011;64007;50.632;13.700;2023-03-23T08:30:58;3.53;;;1.88;;
75426;SDS011;64007;50.632;13.700;2023-03-23T08:33:24;8.05;;;2.55;;
75426;SDS011;64007;50.632;13.700;2023-03-23T08:35:59;14.73;;;2.42;;
75426;SDS011;64007;50.632;13.700;2023-03-23T08:38:26;8.95;;;2.42;;
75426;SDS011;64007;50.632;13.700;2023-03-23T08:41:03;6.38;;;2.33;;
75426;SDS011;64007;50.632;13.700;2023-03-23T08:43:31;9.38;;;2.10;;
75426;SDS011;64007;50.632;13.700;2023-03-23T08:45:58;9.13;;;2.30;;
75426;SDS011;64007;50.632;13.700;2023-03-23T08:48:24;12.95;;;2.00;;
75426;SDS011;64007;50.632;13.700;2023-03-23T08:50:50;7.47;;;2.10;;
75426;SDS011;64007;50.632;13.700;2023-03-23T08:53:17;7.35;;;1.67;;
75426;SDS011;64007;50.632;13.700;2023-03-23T08:55:46;4.85;;;2.15;;
75426;SDS011;64007;50.632;13.700;2023-03-23T08:58:14;12.07;;;1.95;;
75426;SDS011;64007;50.632;13.700;2023-03-23T09:00:40;5.82;;;1.90;;
75426;SDS011;64007;50.632;13.700;2023-03-23T09:03:05;5.63;;;1.90;;
75426;SDS011;64007;50.632;13.700;2023-03-23T09:05:32;13.00;;;1.92;;
75426;SDS011;64007;50.632;13.700;2023-03-23T09:07:58;7.85;;;1.75;;
75426;SDS011;64007;50.632;13.700;2023-03-23T09:10:25;10.52;;;1.90;;
75426;SDS011;64007;50.632;13.700;2023-03-23T09:12:52;5.57;;;2.35;;
75426;SDS011;64007;50.632;13.700;2023-03-23T09:15:18;7.85;;;2.00;;
75426;SDS011;64007;50.632;13.700;2023-03-23T09:17:46;4.20;;;2.00;;
75426;SDS011;64007;50.632;13.700;2023-03-23T09:20:15;6.10;;;1.90;;
75426;SDS011;64007;50.632;13.700;2023-03-23T09:22:45;5.63;;;1.95;;
75426;SDS011;64007;50.632;13.700;2023-03-23T09:25:15;7.82;;;1.65;;
75426;SDS011;64007;50.632;13.700;2023-03-23T09:27:44;4.30;;;1.80;;
75426;SDS011;64007;50.632;13.700;2023-03-23T09:30:12;6.95;;;1.80;;
75426;SDS011;64007;50.632;13.700;2023-03-23T09:32:39;12.77;;;1.90;;
75426;SDS011;64007;50.632;13.700;2023-03-23T09:35:08;8.70;;;1.60;;
75426;SDS011;64007;50.632;13.700;2023-03-23T09:37:36;4.10;;;1.90;;
75426;SDS011;64007;50.632;13.700;2023-03-23T09:40:03;10.00;;;2.15;;
75426;SDS011;64007;50.632;13.700;2023-03-23T09:48:02;9.60;;;2.83;;
75426;SDS011;64007;50.632;13.700;2023-03-23T09:50:30;9.85;;;2.08;;
75426;SDS011;64007;50.632;13.700;2023-03-23T09:53:00;4.75;;;1.70;;
75426;SDS011;64007;50.632;13.700;2023-03-23T09:55:38;4.88;;;1.90;;
75426;SDS011;64007;50.632;13.700;2023-03-23T09:58:14;4.85;;;1.77;;
75426;SDS011;64007;50.632;13.700;2023-03-23T10:00:48;3.92;;;1.73;;
75426;SDS011;64007;50.632;13.700;2023-03-23T10:03:21;11.10;;;1.95;;
75426;SDS011;64007;50.632;13.700;2023-03-23T10:05:53;2.97;;;1.50;;
75426;SDS011;64007;50.632;13.700;2023-03-23T10:08:21;3.17;;;1.10;;
75426;SDS011;64007;50.632;13.700;2023-03-23T10:16:21;1.48;;;0.70;;
75426;SDS011;64007;50.632;13.700;2023-03-23T10:21:22;1.27;;;0.65;;
75426;SDS011;64007;50.632;13.700;2023-03-23T10:23:54;2.30;;;0.90;;
75426;SDS011;64007;50.632;13.700;2023-03-23T10:26:40;1.52;;;0.70;;
75426;SDS011;64007;50.632;13.700;2023-03-23T10:30:01;2.63;;;0.73;;
75426;SDS011;64007;50.632;13.700;2023-03-23T10:34:53;2.70;;;1.02;;
75426;SDS011;64007;50.632;13.700;2023-03-23T10:37:26;1.33;;;0.85;;
75426;SDS011;64007;50.632;13.700;2023-03-23T10:40:00;2.75;;;1.00;;
75426;SDS011;64007;50.632;13.700;2023-03-23T10:42:30;2.67;;;0.90;;
75426;SDS011;64007;50.632;13.700;2023-03-23T10:45:11;3.13;;;1.20;;
75426;SDS011;64007;50.632;13.700;2023-03-23T10:47:39;2.95;;;1.05;;
75426;SDS011;64007;50.632;13.700;2023-03-23T10:50:12;1.55;;;0.90;;
75426;SDS011;64007;50.632;13.700;2023-03-23T10:52:43;1.35;;;0.70;;
75426;SDS011;64007;50.632;13.700;2023-03-23T10:55:14;1.27;;;0.80;;
75426;SDS011;64007;50.632;13.700;2023-03-23T10:57:45;1.10;;;0.82;;
75426;SDS011;64007;50.632;13.700;2023-03-23T11:00:24;1.07;;;0.63;;
75426;SDS011;64007;50.632;13.700;2023-03-23T11:05:24;2.25;;;1.00;;
75426;SDS011;64007;50.632;13.700;2023-03-23T11:07:59;1.52;;;0.90;;
75426;SDS011;64007;50.632;13.700;2023-03-23T11:10:27;1.63;;;1.00;;
75426;SDS011;64007;50.632;13.700;2023-03-23T11:13:02;1.52;;;0.88;;
75426;SDS011;64007;50.632;13.700;2023-03-23T11:15:39;3.42;;;0.77;;
75426;SDS011;64007;50.632;13.700;2023-03-23T11:18:08;2.70;;;1.08;;
75426;SDS011;64007;50.632;13.700;2023-03-23T11:20:37;1.20;;;0.70;;
75426;SDS011;64007;50.632;13.700;2023-03-23T11:23:15;2.17;;;0.90;;
75426;SDS011;64007;50.632;13.700;2023-03-23T11:25:56;5.93;;;1.00;;
75426;SDS011;64007;50.632;13.700;2023-03-23T11:28:46;2.05;;;0.93;;
75426;SDS011;64007;50.632;13.700;2023-03-23T11:31:19;1.85;;;0.93;;
75426;SDS011;64007;50.632;13.700;2023-03-23T11:36:42;2.70;;;1.00;;
75426;SDS011;64007;50.632;13.700;2023-03-23T11:39:32;4.78;;;1.30;;
75426;SDS011;64007;50.632;13.700;2023-03-23T11:42:21;3.38;;;1.00;;
75426;SDS011;64007;50.632;13.700;2023-03-23T11:44:52;2.72;;;0.95;;
75426;SDS011;64007;50.632;13.700;2023-03-23T11:47:22;1.95;;;1.00;;
75426;SDS011;64007;50.632;13.700;2023-03-23T11:49:57;3.40;;;1.10;;
75426;SDS011;64007;50.632;13.700;2023-03-23T11:52:40;1.23;;;0.82;;
75426;SDS011;64007;50.632;13.700;2023-03-23T11:55:25;1.48;;;0.82;;
75426;SDS011;64007;50.632;13.700;2023-03-23T11:57:55;2.45;;;0.90;;
75426;SDS011;64007;50.632;13.700;2023-03-23T12:00:27;1.73;;;0.90;;
75426;SDS011;64007;50.632;13.700;2023-03-23T12:03:02;2.13;;;0.70;;
75426;SDS011;64007;50.632;13.700;2023-03-23T12:05:49;1.35;;;0.90;;
75426;SDS011;64007;50.632;13.700;2023-03-23T12:10:59;5.00;;;1.00;;
75426;SDS011;64007;50.632;13.700;2023-03-23T12:19:10;2.22;;;1.05;;
75426;SDS011;64007;50.632;13.700;2023-03-23T12:43:51;3.60;;;1.30;;
75426;SDS011;64007;50.632;13.700;2023-03-23T12:57:06;4.70;;;1.67;;
75426;SDS011;64007;50.632;13.700;2023-03-23T12:59:53;1.60;;;1.25;;
75426;SDS011;64007;50.632;13.700;2023-03-23T13:02:25;3.63;;;1.45;;
75426;SDS011;64007;50.632;13.700;2023-03-23T13:05:01;8.02;;;1.30;;
75426;SDS011;64007;50.632;13.700;2023-03-23T13:07:37;5.63;;;1.45;;
75426;SDS011;64007;50.632;13.700;2023-03-23T13:12:47;3.65;;;1.40;;
75426;SDS011;64007;50.632;13.700;2023-03-23T13:23:04;5.72;;;3.00;;
75426;SDS011;64007;50.632;13.700;2023-03-23T13:25:46;6.57;;;3.17;;
75426;SDS011;64007;50.632;13.700;2023-03-23T13:28:14;7.07;;;1.90;;
75426;SDS011;64007;50.632;13.700;2023-03-23T13:30:52;4.28;;;1.85;;
75426;SDS011;64007;50.632;13.700;2023-03-23T13:33:20;6.32;;;1.95;;
75426;SDS011;64007;50.632;13.700;2023-03-23T13:35:46;2.88;;;1.52;;
75426;SDS011;64007;50.632;13.700;2023-03-23T13:38:23;2.78;;;1.27;;
75426;SDS011;64007;50.632;13.700;2023-03-23T13:40:51;5.80;;;1.70;;
75426;SDS011;64007;50.632;13.700;2023-03-23T13:43:52;2.22;;;1.15;;
75426;SDS011;64007;50.632;13.700;2023-03-23T13:49:03;2.53;;;1.23;;
75426;SDS011;64007;50.632;13.700;2023-03-23T13:51:36;3.33;;;1.45;;
75426;SDS011;64007;50.632;13.700;2023-03-23T14:00:24;2.65;;;1.30;;
75426;SDS011;64007;50.632;13.700;2023-03-23T14:02:51;4.43;;;1.10;;
75426;SDS011;64007;50.632;13.700;2023-03-23T14:10:33;3.78;;;1.10;;
75426;SDS011;64007;50.632;13.700;2023-03-23T14:13:19;1.90;;;1.13;;
75426;SDS011;64007;50.632;13.700;2023-03-23T14:15:55;9.48;;;1.17;;
75426;SDS011;64007;50.632;13.700;2023-03-23T14:18:38;6.95;;;1.40;;
75426;SDS011;64007;50.632;13.700;2023-03-23T14:21:06;3.85;;;1.33;;
75426;SDS011;64007;50.632;13.700;2023-03-23T14:23:40;3.63;;;1.48;;
75426;SDS011;64007;50.632;13.700;2023-03-23T14:26:10;5.63;;;1.60;;
75426;SDS011;64007;50.632;13.700;2023-03-23T14:28:40;4.82;;;1.88;;
75426;SDS011;64007;50.632;13.700;2023-03-23T14:31:42;7.93;;;1.80;;
75426;SDS011;64007;50.632;13.700;2023-03-23T15:29:51;3.85;;;1.30;;
75426;SDS011;64007;50.632;13.700;2023-03-23T15:32:22;3.15;;;1.65;;
75426;SDS011;64007;50.632;13.700;2023-03-23T15:34:56;6.80;;;1.60;;
75426;SDS011;64007;50.632;13.700;2023-03-23T15:37:26;6.18;;;1.40;;
75426;SDS011;64007;50.632;13.700;2023-03-23T15:39:53;2.67;;;1.30;;
75426;SDS011;64007;50.632;13.700;2023-03-23T15:42:21;7.30;;;1.13;;
75426;SDS011;64007;50.632;13.700;2023-03-23T15:45:24;13.18;;;1.70;;
75426;SDS011;64007;50.632;13.700;2023-03-23T15:47:53;5.55;;;0.90;;
75426;SDS011;64007;50.632;13.700;2023-03-23T15:52:50;4.85;;;1.17;;
75426;SDS011;64007;50.632;13.700;2023-03-23T15:57:46;2.65;;;1.40;;
75426;SDS011;64007;50.632;13.700;2023-03-23T16:00:14;5.82;;;2.55;;
75426;SDS011;64007;50.632;13.700;2023-03-23T16:02:40;2.47;;;1.40;;
75426;SDS011;64007;50.632;13.700;2023-03-23T16:05:09;3.08;;;1.20;;
75426;SDS011;64007;50.632;13.700;2023-03-23T16:07:37;2.25;;;1.17;;
75426;SDS011;64007;50.632;13.700;2023-03-23T16:10:04;3.28;;;1.25;;
75426;SDS011;64007;50.632;13.700;2023-03-23T16:12:31;1.73;;;1.10;;
75426;SDS011;64007;50.632;13.700;2023-03-23T16:14:57;3.42;;;1.10;;
75426;SDS011;64007;50.632;13.700;2023-03-23T16:17:23;4.03;;;1.23;;
75426;SDS011;64007;50.632;13.700;2023-03-23T16:19:50;2.08;;;1.30;;
75426;SDS011;64007;50.632;13.700;2023-03-23T16:22:16;2.25;;;0.82;;
75426;SDS011;64007;50.632;13.700;2023-03-23T16:24:42;1.92;;;1.20;;
75426;SDS011;64007;50.632;13.700;2023-03-23T16:27:10;5.40;;;1.23;;
75426;SDS011;64007;50.632;13.700;2023-03-23T16:29:37;4.72;;;1.15;;
75426;SDS011;64007;50.632;13.700;2023-03-23T16:32:03;2.38;;;1.08;;
75426;SDS011;64007;50.632;13.700;2023-03-23T16:34:28;5.38;;;1.17;;
75426;SDS011;64007;50.632;13.700;2023-03-23T16:36:58;2.63;;;1.13;;
75426;SDS011;64007;50.632;13.700;2023-03-23T16:39:23;1.98;;;1.10;;
75426;SDS011;64007;50.632;13.700;2023-03-23T16:41:49;9.88;;;1.30;;
75426;SDS011;64007;50.632;13.700;2023-03-23T16:44:15;1.60;;;1.00;;
75426;SDS011;64007;50.632;13.700;2023-03-23T16:46:41;5.13;;;1.10;;
75426;SDS011;64007;50.632;13.700;2023-03-23T16:49:06;3.08;;;1.20;;
75426;SDS011;64007;50.632;13.700;2023-03-23T16:51:32;4.00;;;0.93;;
75426;SDS011;64007;50.632;13.700;2023-03-23T16:53:58;5.63;;;1.10;;
75426;SDS011;64007;50.632;13.700;2023-03-23T16:56:23;2.17;;;1.20;;
75426;SDS011;64007;50.632;13.700;2023-03-23T16:58:49;3.90;;;1.20;;
75426;SDS011;64007;50.632;13.700;2023-03-23T17:01:15;2.47;;;0.93;;
75426;SDS011;64007;50.632;13.700;2023-03-23T17:03:40;4.43;;;1.30;;
75426;SDS011;64007;50.632;13.700;2023-03-23T17:06:07;2.75;;;1.30;;
75426;SDS011;64007;50.632;13.700;2023-03-23T17:08:33;2.67;;;1.60;;
75426;SDS011;64007;50.632;13.700;2023-03-23T17:10:59;8.10;;;2.08;;
75426;SDS011;64007;50.632;13.700;2023-03-23T17:13:25;4.43;;;1.88;;
75426;SDS011;64007;50.632;13.700;2023-03-23T17:15:52;6.60;;;1.50;;
75426;SDS011;64007;50.632;13.700;2023-03-23T17:18:20;2.00;;;1.10;;
75426;SDS011;64007;50.632;13.700;2023-03-23T17:20:47;5.43;;;1.20;;
75426;SDS011;64007;50.632;13.700;2023-03-23T17:23:13;4.22;;;1.30;;
75426;SDS011;64007;50.632;13.700;2023-03-23T17:25:39;3.80;;;1.50;;
75426;SDS011;64007;50.632;13.700;2023-03-23T17:28:04;3.63;;;1.70;;
75426;SDS011;64007;50.632;13.700;2023-03-23T17:30:30;9.25;;;1.33;;
75426;SDS011;64007;50.632;13.700;2023-03-23T17:32:56;11.20;;;1.27;;
75426;SDS011;64007;50.632;13.700;2023-03-23T17:35:22;2.47;;;1.10;;
75426;SDS011;64007;50.632;13.700;2023-03-23T17:37:47;2.63;;;1.30;;
75426;SDS011;64007;50.632;13.700;2023-03-23T17:40:13;2.58;;;1.00;;
75426;SDS011;64007;50.632;13.700;2023-03-23T17:42:39;1.83;;;1.25;;
75426;SDS011;64007;50.632;13.700;2023-03-23T17:45:06;2.42;;;1.38;;